sensor_id;sensor_type;location;lat;lon;timestamp;temperature;humidity
72355;SHT30;60314;55.040;73.076;2023-02-24T00:01:55;-8.02;74.49
72355;SHT30;60314;55.040;73.076;2023-02-24T00:07:04;-8.06;74.86
72355;SHT30;60314;55.040;73.076;2023-02-24T00:12:06;-8.19;75.02
72355;SHT30;60314;55.040;73.076;2023-02-24T00:17:20;-8.36;75.70
72355;SHT30;60314;55.040;73.076;2023-02-24T00:22:23;-8.43;77.02
72355;SHT30;60314;55.040;73.076;2023-02-24T00:27:35;-8.54;76.91
72355;SHT30;60314;55.040;73.076;2023-02-24T00:32:41;-8.64;77.10
72355;SHT30;60314;55.040;73.076;2023-02-24T00:37:43;-8.70;76.98
72355;SHT30;60314;55.040;73.076;2023-02-24T00:42:55;-8.81;76.84
72355;SHT30;60314;55.040;73.076;2023-02-24T00:48:02;-8.95;77.30
72355;SHT30;60314;55.040;73.076;2023-02-24T00:53:05;-9.07;76.82
72355;SHT30;60314;55.040;73.076;2023-02-24T00:58:12;-9.12;76.78
72355;SHT30;60314;55.040;73.076;2023-02-24T01:03:13;-9.25;76.33
72355;SHT30;60314;55.040;73.076;2023-02-24T01:08:19;-9.31;76.15
72355;SHT30;60314;55.040;73.076;2023-02-24T01:13:23;-9.40;76.08
72355;SHT30;60314;55.040;73.076;2023-02-24T01:18:24;-9.43;76.05
72355;SHT30;60314;55.040;73.076;2023-02-24T01:23:38;-9.46;75.96
72355;SHT30;60314;55.040;73.076;2023-02-24T01:28:44;-9.47;76.14
72355;SHT30;60314;55.040;73.076;2023-02-24T01:33:56;-9.53;75.88
72355;SHT30;60314;55.040;73.076;2023-02-24T01:39:03;-9.65;75.50
72355;SHT30;60314;55.040;73.076;2023-02-24T01:54:26;-9.90;75.77
72355;SHT30;60314;55.040;73.076;2023-02-24T01:59:38;-9.90;75.79
72355;SHT30;60314;55.040;73.076;2023-02-24T02:04:51;-9.93;75.58
72355;SHT30;60314;55.040;73.076;2023-02-24T02:10:04;-9.94;75.34
72355;SHT30;60314;55.040;73.076;2023-02-24T02:15:13;-10.00;75.14
72355;SHT30;60314;55.040;73.076;2023-02-24T02:31:17;-10.17;74.24
72355;SHT30;60314;55.040;73.076;2023-02-24T02:41:40;-10.04;74.30
72355;SHT30;60314;55.040;73.076;2023-02-24T02:47:01;-9.94;74.18
72355;SHT30;60314;55.040;73.076;2023-02-24T02:52:04;-9.69;74.32
72355;SHT30;60314;55.040;73.076;2023-02-24T02:57:11;-9.49;73.34
72355;SHT30;60314;55.040;73.076;2023-02-24T03:02:16;-9.46;72.53
72355;SHT30;60314;55.040;73.076;2023-02-24T03:07:18;-9.43;72.27
72355;SHT30;60314;55.040;73.076;2023-02-24T03:12:22;-9.40;71.95
72355;SHT30;60314;55.040;73.076;2023-02-24T03:17:35;-9.40;71.94
72355;SHT30;60314;55.040;73.076;2023-02-24T03:22:45;-9.31;72.81
72355;SHT30;60314;55.040;73.076;2023-02-24T03:28:01;-9.11;72.61
72355;SHT30;60314;55.040;73.076;2023-02-24T03:33:14;-8.81;72.35
72355;SHT30;60314;55.040;73.076;2023-02-24T03:38:18;-8.73;72.10
72355;SHT30;60314;55.040;73.076;2023-02-24T03:48:27;-8.52;71.24
72355;SHT30;60314;55.040;73.076;2023-02-24T03:58:37;-8.47;71.33
72355;SHT30;60314;55.040;73.076;2023-02-24T04:03:52;-8.37;71.88
72355;SHT30;60314;55.040;73.076;2023-02-24T04:09:16;-8.21;71.83
72355;SHT30;60314;55.040;73.076;2023-02-24T04:14:33;-7.99;71.51
72355;SHT30;60314;55.040;73.076;2023-02-24T04:19:39;-7.85;70.94
72355;SHT30;60314;55.040;73.076;2023-02-24T04:24:51;-7.82;71.21
72355;SHT30;60314;55.040;73.076;2023-02-24T04:29:53;-7.78;71.54
72355;SHT30;60314;55.040;73.076;2023-02-24T04:35:08;-7.70;71.55
72355;SHT30;60314;55.040;73.076;2023-02-24T04:40:17;-7.54;71.63
72355;SHT30;60314;55.040;73.076;2023-02-24T04:46:01;-7.36;71.45
72355;SHT30;60314;55.040;73.076;2023-02-24T04:51:17;-7.27;71.13
72355;SHT30;60314;55.040;73.076;2023-02-24T04:56:20;-7.16;71.13
72355;SHT30;60314;55.040;73.076;2023-02-24T05:01:32;-7.09;70.97
72355;SHT30;60314;55.040;73.076;2023-02-24T05:06:33;-7.06;70.81
72355;SHT30;60314;55.040;73.076;2023-02-24T05:11:35;-7.00;70.39
72355;SHT30;60314;55.040;73.076;2023-02-24T05:16:40;-6.88;70.01
72355;SHT30;60314;55.040;73.076;2023-02-24T05:21:44;-6.88;69.51
72355;SHT30;60314;55.040;73.076;2023-02-24T05:26:45;-6.82;69.07
72355;SHT30;60314;55.040;73.076;2023-02-24T05:31:46;-6.84;68.68
72355;SHT30;60314;55.040;73.076;2023-02-24T05:36:58;-6.75;68.93
72355;SHT30;60314;55.040;73.076;2023-02-24T05:42:00;-6.64;68.23
72355;SHT30;60314;55.040;73.076;2023-02-24T05:47:06;-6.58;67.80
72355;SHT30;60314;55.040;73.076;2023-02-24T05:52:12;-6.67;68.33
72355;SHT30;60314;55.040;73.076;2023-02-24T05:57:15;-6.65;68.36
72355;SHT30;60314;55.040;73.076;2023-02-24T06:02:29;-6.58;68.58
72355;SHT30;60314;55.040;73.076;2023-02-24T06:07:37;-6.65;68.06
72355;SHT30;60314;55.040;73.076;2023-02-24T06:12:38;-6.69;68.30
72355;SHT30;60314;55.040;73.076;2023-02-24T06:18:04;-6.58;67.81
72355;SHT30;60314;55.040;73.076;2023-02-24T06:23:07;-6.49;67.92
72355;SHT30;60314;55.040;73.076;2023-02-24T06:28:08;-6.54;67.24
72355;SHT30;60314;55.040;73.076;2023-02-24T06:33:10;-6.37;67.38
72355;SHT30;60314;55.040;73.076;2023-02-24T06:38:11;-6.45;66.38
72355;SHT30;60314;55.040;73.076;2023-02-24T06:43:14;-6.67;67.43
72355;SHT30;60314;55.040;73.076;2023-02-24T06:48:25;-6.76;67.96
72355;SHT30;60314;55.040;73.076;2023-02-24T06:53:37;-6.60;67.81
72355;SHT30;60314;55.040;73.076;2023-02-24T06:58:43;-6.61;66.80
72355;SHT30;60314;55.040;73.076;2023-02-24T07:03:54;-6.67;67.65
72355;SHT30;60314;55.040;73.076;2023-02-24T07:09:07;-6.62;68.11
72355;SHT30;60314;55.040;73.076;2023-02-24T07:14:09;-6.60;67.89
72355;SHT30;60314;55.040;73.076;2023-02-24T07:19:12;-6.45;67.68
72355;SHT30;60314;55.040;73.076;2023-02-24T07:24:15;-6.78;68.37
72355;SHT30;60314;55.040;73.076;2023-02-24T07:29:25;-7.05;71.78
72355;SHT30;60314;55.040;73.076;2023-02-24T07:34:31;-7.09;72.36
72355;SHT30;60314;55.040;73.076;2023-02-24T07:39:38;-7.06;69.89
72355;SHT30;60314;55.040;73.076;2023-02-24T07:44:50;-6.93;69.96
72355;SHT30;60314;55.040;73.076;2023-02-24T07:49:51;-7.08;69.21
72355;SHT30;60314;55.040;73.076;2023-02-24T07:54:53;-7.15;70.60
72355;SHT30;60314;55.040;73.076;2023-02-24T08:00:05;-7.23;69.58
72355;SHT30;60314;55.040;73.076;2023-02-24T08:05:23;-7.51;71.38
72355;SHT30;60314;55.040;73.076;2023-02-24T08:11:00;-7.36;72.95
72355;SHT30;60314;55.040;73.076;2023-02-24T08:16:04;-7.37;69.12
72355;SHT30;60314;55.040;73.076;2023-02-24T08:21:10;-7.68;67.97
72355;SHT30;60314;55.040;73.076;2023-02-24T08:26:14;-8.08;69.01
72355;SHT30;60314;55.040;73.076;2023-02-24T08:31:25;-8.19;67.88
72355;SHT30;60314;55.040;73.076;2023-02-24T08:36:26;-7.98;67.84
72355;SHT30;60314;55.040;73.076;2023-02-24T08:41:28;-7.99;68.14
72355;SHT30;60314;55.040;73.076;2023-02-24T08:46:45;-8.03;67.62
72355;SHT30;60314;55.040;73.076;2023-02-24T08:51:50;-8.09;68.97
72355;SHT30;60314;55.040;73.076;2023-02-24T08:56:55;-8.11;69.02
72355;SHT30;60314;55.040;73.076;2023-02-24T09:01:57;-8.13;67.48
72355;SHT30;60314;55.040;73.076;2023-02-24T09:07:22;-8.23;68.71
72355;SHT30;60314;55.040;73.076;2023-02-24T09:12:26;-8.37;70.59
72355;SHT30;60314;55.040;73.076;2023-02-24T09:17:29;-8.33;69.51
72355;SHT30;60314;55.040;73.076;2023-02-24T09:22:45;-8.49;69.26
72355;SHT30;60314;55.040;73.076;2023-02-24T09:33:11;-8.58;71.40
72355;SHT30;60314;55.040;73.076;2023-02-24T09:38:20;-8.46;70.48
72355;SHT30;60314;55.040;73.076;2023-02-24T09:43:41;-8.44;69.68
72355;SHT30;60314;55.040;73.076;2023-02-24T09:48:54;-8.49;70.16
72355;SHT30;60314;55.040;73.076;2023-02-24T09:53:55;-8.53;70.49
72355;SHT30;60314;55.040;73.076;2023-02-24T10:09:57;-8.67;71.46
72355;SHT30;60314;55.040;73.076;2023-02-24T10:14:59;-8.79;71.10
72355;SHT30;60314;55.040;73.076;2023-02-24T10:21:05;-8.98;71.20
72355;SHT30;60314;55.040;73.076;2023-02-24T10:26:15;-9.01;72.04
72355;SHT30;60314;55.040;73.076;2023-02-24T10:31:42;-9.04;72.75
72355;SHT30;60314;55.040;73.076;2023-02-24T10:36:51;-9.19;74.06
72355;SHT30;60314;55.040;73.076;2023-02-24T10:42:03;-9.29;75.19
72355;SHT30;60314;55.040;73.076;2023-02-24T10:47:19;-9.36;74.97
72355;SHT30;60314;55.040;73.076;2023-02-24T10:52:24;-9.32;74.68
72355;SHT30;60314;55.040;73.076;2023-02-24T10:57:44;-9.19;73.75
72355;SHT30;60314;55.040;73.076;2023-02-24T11:03:05;-9.31;74.03
72355;SHT30;60314;55.040;73.076;2023-02-24T11:08:11;-9.29;74.62
72355;SHT30;60314;55.040;73.076;2023-02-24T11:13:47;-9.26;75.53
72355;SHT30;60314;55.040;73.076;2023-02-24T11:19:09;-9.45;75.46
72355;SHT30;60314;55.040;73.076;2023-02-24T11:24:13;-9.56;75.18
72355;SHT30;60314;55.040;73.076;2023-02-24T11:29:26;-9.63;75.27
72355;SHT30;60314;55.040;73.076;2023-02-24T11:34:39;-9.55;74.90
72355;SHT30;60314;55.040;73.076;2023-02-24T11:51:09;-9.78;75.27
72355;SHT30;60314;55.040;73.076;2023-02-24T11:56:14;-9.86;75.36
72355;SHT30;60314;55.040;73.076;2023-02-24T12:06:25;-10.08;75.30
72355;SHT30;60314;55.040;73.076;2023-02-24T12:11:36;-10.18;76.04
72355;SHT30;60314;55.040;73.076;2023-02-24T12:16:44;-10.25;76.47
72355;SHT30;60314;55.040;73.076;2023-02-24T12:21:52;-10.24;76.66
72355;SHT30;60314;55.040;73.076;2023-02-24T12:32:03;-10.29;77.22
72355;SHT30;60314;55.040;73.076;2023-02-24T12:53:16;-10.38;79.17
72355;SHT30;60314;55.040;73.076;2023-02-24T12:58:25;-10.35;79.44
72355;SHT30;60314;55.040;73.076;2023-02-24T13:19:27;-10.25;74.84
72355;SHT30;60314;55.040;73.076;2023-02-24T13:36:16;-10.35;75.87
72355;SHT30;60314;55.040;73.076;2023-02-24T13:52:02;-10.53;75.81
72355;SHT30;60314;55.040;73.076;2023-02-24T14:02:20;-10.77;74.37
72355;SHT30;60314;55.040;73.076;2023-02-24T14:07:24;-10.84;73.72
72355;SHT30;60314;55.040;73.076;2023-02-24T14:12:26;-10.96;73.39
72355;SHT30;60314;55.040;73.076;2023-02-24T14:22:44;-11.24;74.61
72355;SHT30;60314;55.040;73.076;2023-02-24T14:27:56;-11.28;74.99
72355;SHT30;60314;55.040;73.076;2023-02-24T14:32:57;-11.34;74.23
72355;SHT30;60314;55.040;73.076;2023-02-24T14:38:00;-11.38;74.17
72355;SHT30;60314;55.040;73.076;2023-02-24T14:43:13;-11.51;74.25
72355;SHT30;60314;55.040;73.076;2023-02-24T14:48:22;-11.59;74.04
72355;SHT30;60314;55.040;73.076;2023-02-24T14:53:23;-11.69;74.17
72355;SHT30;60314;55.040;73.076;2023-02-24T14:58:35;-11.79;74.07
72355;SHT30;60314;55.040;73.076;2023-02-24T15:03:55;-11.85;74.31
72355;SHT30;60314;55.040;73.076;2023-02-24T15:09:04;-11.97;74.26
72355;SHT30;60314;55.040;73.076;2023-02-24T15:14:27;-12.05;74.45
72355;SHT30;60314;55.040;73.076;2023-02-24T15:19:39;-12.05;74.22
72355;SHT30;60314;55.040;73.076;2023-02-24T15:24:49;-12.10;74.55
72355;SHT30;60314;55.040;73.076;2023-02-24T15:29:58;-12.13;74.77
72355;SHT30;60314;55.040;73.076;2023-02-24T15:35:20;-12.17;74.97
72355;SHT30;60314;55.040;73.076;2023-02-24T15:41:00;-12.30;75.20
72355;SHT30;60314;55.040;73.076;2023-02-24T15:52:07;-12.33;74.36
72355;SHT30;60314;55.040;73.076;2023-02-24T15:57:19;-12.38;74.09
72355;SHT30;60314;55.040;73.076;2023-02-24T16:02:21;-12.45;73.99
72355;SHT30;60314;55.040;73.076;2023-02-24T16:07:25;-12.50;73.93
72355;SHT30;60314;55.040;73.076;2023-02-24T16:12:31;-12.53;73.84
72355;SHT30;60314;55.040;73.076;2023-02-24T16:17:38;-12.57;73.85
72355;SHT30;60314;55.040;73.076;2023-02-24T16:22:40;-12.61;73.69
72355;SHT30;60314;55.040;73.076;2023-02-24T16:27:41;-12.67;73.66
72355;SHT30;60314;55.040;73.076;2023-02-24T16:32:43;-12.74;73.64
72355;SHT30;60314;55.040;73.076;2023-02-24T16:37:46;-12.79;73.47
72355;SHT30;60314;55.040;73.076;2023-02-24T16:42:52;-12.86;73.55
72355;SHT30;60314;55.040;73.076;2023-02-24T16:47:54;-12.93;73.60
72355;SHT30;60314;55.040;73.076;2023-02-24T16:52:58;-12.99;73.55
72355;SHT30;60314;55.040;73.076;2023-02-24T16:57:59;-13.03;73.46
72355;SHT30;60314;55.040;73.076;2023-02-24T17:03:02;-13.08;73.25
72355;SHT30;60314;55.040;73.076;2023-02-24T17:08:04;-13.12;73.12
72355;SHT30;60314;55.040;73.076;2023-02-24T17:13:06;-13.15;73.24
72355;SHT30;60314;55.040;73.076;2023-02-24T17:18:08;-13.19;73.08
72355;SHT30;60314;55.040;73.076;2023-02-24T17:23:10;-13.29;73.06
72355;SHT30;60314;55.040;73.076;2023-02-24T17:28:21;-13.34;73.19
72355;SHT30;60314;55.040;73.076;2023-02-24T17:33:23;-13.41;73.12
72355;SHT30;60314;55.040;73.076;2023-02-24T17:38:29;-13.54;73.39
72355;SHT30;60314;55.040;73.076;2023-02-24T17:43:31;-13.51;73.34
72355;SHT30;60314;55.040;73.076;2023-02-24T17:48:32;-13.54;73.24
72355;SHT30;60314;55.040;73.076;2023-02-24T17:53:34;-13.58;73.33
72355;SHT30;60314;55.040;73.076;2023-02-24T17:58:45;-13.58;73.61
72355;SHT30;60314;55.040;73.076;2023-02-24T18:03:47;-13.58;73.81
72355;SHT30;60314;55.040;73.076;2023-02-24T18:08:50;-13.64;73.41
72355;SHT30;60314;55.040;73.076;2023-02-24T18:13:52;-13.72;73.52
72355;SHT30;60314;55.040;73.076;2023-02-24T18:18:55;-13.78;73.84
72355;SHT30;60314;55.040;73.076;2023-02-24T18:23:56;-13.83;73.96
72355;SHT30;60314;55.040;73.076;2023-02-24T18:28:58;-13.86;73.95
72355;SHT30;60314;55.040;73.076;2023-02-24T18:33:59;-13.98;73.82
72355;SHT30;60314;55.040;73.076;2023-02-24T18:39:01;-14.06;74.04
72355;SHT30;60314;55.040;73.076;2023-02-24T18:44:07;-14.08;74.05
72355;SHT30;60314;55.040;73.076;2023-02-24T18:49:09;-14.16;73.94
72355;SHT30;60314;55.040;73.076;2023-02-24T18:54:11;-14.19;74.22
72355;SHT30;60314;55.040;73.076;2023-02-24T18:59:12;-14.19;74.52
72355;SHT30;60314;55.040;73.076;2023-02-24T19:04:19;-14.15;74.50
72355;SHT30;60314;55.040;73.076;2023-02-24T19:09:20;-14.19;74.22
72355;SHT30;60314;55.040;73.076;2023-02-24T19:14:32;-14.28;74.44
72355;SHT30;60314;55.040;73.076;2023-02-24T19:19:33;-14.30;74.63
72355;SHT30;60314;55.040;73.076;2023-02-24T19:24:40;-14.29;74.69
72355;SHT30;60314;55.040;73.076;2023-02-24T19:29:41;-14.25;74.61
72355;SHT30;60314;55.040;73.076;2023-02-24T19:34:43;-14.26;74.67
72355;SHT30;60314;55.040;73.076;2023-02-24T19:39:45;-14.26;74.63
72355;SHT30;60314;55.040;73.076;2023-02-24T19:44:57;-14.26;74.92
72355;SHT30;60314;55.040;73.076;2023-02-24T19:49:58;-14.29;74.71
72355;SHT30;60314;55.040;73.076;2023-02-24T19:54:59;-14.29;74.63
72355;SHT30;60314;55.040;73.076;2023-02-24T20:00:02;-14.33;74.43
72355;SHT30;60314;55.040;73.076;2023-02-24T20:05:13;-14.40;74.21
72355;SHT30;60314;55.040;73.076;2023-02-24T20:10:20;-14.46;74.59
72355;SHT30;60314;55.040;73.076;2023-02-24T20:15:21;-14.52;74.46
72355;SHT30;60314;55.040;73.076;2023-02-24T20:20:27;-14.53;74.65
72355;SHT30;60314;55.040;73.076;2023-02-24T20:25:48;-14.56;74.63
72355;SHT30;60314;55.040;73.076;2023-02-24T20:30:49;-14.61;74.61
72355;SHT30;60314;55.040;73.076;2023-02-24T20:35:54;-14.65;74.84
72355;SHT30;60314;55.040;73.076;2023-02-24T20:40:56;-14.67;74.96
72355;SHT30;60314;55.040;73.076;2023-02-24T20:45:58;-14.71;74.97
72355;SHT30;60314;55.040;73.076;2023-02-24T20:51:02;-14.67;75.34
72355;SHT30;60314;55.040;73.076;2023-02-24T20:56:09;-14.74;75.24
72355;SHT30;60314;55.040;73.076;2023-02-24T21:01:55;-14.68;75.41
72355;SHT30;60314;55.040;73.076;2023-02-24T21:06:56;-14.74;75.34
72355;SHT30;60314;55.040;73.076;2023-02-24T21:11:57;-14.78;75.54
72355;SHT30;60314;55.040;73.076;2023-02-24T21:16:58;-14.81;75.67
72355;SHT30;60314;55.040;73.076;2023-02-24T21:22:00;-14.83;75.60
72355;SHT30;60314;55.040;73.076;2023-02-24T21:27:06;-14.87;75.59
72355;SHT30;60314;55.040;73.076;2023-02-24T21:32:08;-14.94;75.52
72355;SHT30;60314;55.040;73.076;2023-02-24T21:37:14;-14.92;75.97
72355;SHT30;60314;55.040;73.076;2023-02-24T21:42:17;-14.89;76.02
72355;SHT30;60314;55.040;73.076;2023-02-24T21:47:23;-14.88;76.02
72355;SHT30;60314;55.040;73.076;2023-02-24T21:52:25;-14.91;75.83
72355;SHT30;60314;55.040;73.076;2023-02-24T21:57:26;-14.88;75.45
72355;SHT30;60314;55.040;73.076;2023-02-24T22:02:36;-14.94;75.48
72355;SHT30;60314;55.040;73.076;2023-02-24T22:07:37;-14.94;75.18
72355;SHT30;60314;55.040;73.076;2023-02-24T22:12:39;-15.06;75.11
72355;SHT30;60314;55.040;73.076;2023-02-24T22:17:45;-15.06;75.03
72355;SHT30;60314;55.040;73.076;2023-02-24T22:22:46;-15.04;74.90
72355;SHT30;60314;55.040;73.076;2023-02-24T22:27:48;-15.18;74.85
72355;SHT30;60314;55.040;73.076;2023-02-24T22:32:49;-15.26;74.54
72355;SHT30;60314;55.040;73.076;2023-02-24T22:37:50;-15.39;74.85
72355;SHT30;60314;55.040;73.076;2023-02-24T22:42:53;-15.44;74.76
72355;SHT30;60314;55.040;73.076;2023-02-24T22:47:54;-15.53;75.22
72355;SHT30;60314;55.040;73.076;2023-02-24T22:52:56;-15.61;75.34
72355;SHT30;60314;55.040;73.076;2023-02-24T22:57:57;-15.70;75.45
72355;SHT30;60314;55.040;73.076;2023-02-24T23:03:08;-15.70;75.89
72355;SHT30;60314;55.040;73.076;2023-02-24T23:08:09;-15.73;75.83
72355;SHT30;60314;55.040;73.076;2023-02-24T23:13:18;-15.75;75.90
72355;SHT30;60314;55.040;73.076;2023-02-24T23:18:20;-15.87;76.00
72355;SHT30;60314;55.040;73.076;2023-02-24T23:23:22;-15.90;76.29
72355;SHT30;60314;55.040;73.076;2023-02-24T23:28:23;-15.85;76.17
72355;SHT30;60314;55.040;73.076;2023-02-24T23:33:35;-15.88;76.04
72355;SHT30;60314;55.040;73.076;2023-02-24T23:38:36;-15.92;75.70
72355;SHT30;60314;55.040;73.076;2023-02-24T23:43:37;-16.02;75.71
72355;SHT30;60314;55.040;73.076;2023-02-24T23:48:49;-16.04;75.78
72355;SHT30;60314;55.040;73.076;2023-02-24T23:53:51;-16.06;75.44
72355;SHT30;60314;55.040;73.076;2023-02-24T23:58:53;-16.13;75.20
